KLNR/LNR METAR and TAF weather

Enter ICAO airport designator
Station Type Date Time Source
KLNR METAR 2019/06/26 05:56 UTC NOAA

KLNR 260556Z AUTO 00000KT 10SM CLR 16/14 A2993 RMK AO2 SLP128 T01560144 10272 20156 402780122 50013


Station Type Date Time Source
KLNR Decoded METAR 2019/06/26 05:56 UTC NOAA

LONE ROCK TRI-COUNTY REG, WI, United States (KLNR) 43-13N 090-11W 217M
Jun 26, 2019 - 01:56 AM EDT / 2019.06.26 0556 UTC
Wind: Calm:0
Visibility: 10 mile(s):0
Sky conditions: clear
Temperature: 60.1 F (15.6 C)
Dew Point: 57.9 F (14.4 C)
Relative Humidity: 92%
Pressure (altimeter): 29.93 in. Hg (1013 hPa)
Pressure tendency: 0.04 inches (1.3 hPa) higher than three hours ago
ob: KLNR 260556Z AUTO 00000KT 10SM CLR 16/14 A2993 RMK AO2 SLP128 T01560144 10272 20156 402780122 50013
cycle: 6

Station Type Date Time Source
KLNR TAF UTC NOAA

Error!

Example: see airport list